createdAt,value
2017-04-02T00:00:53.742Z,0
2017-04-02T00:02:03.718Z,0
2017-04-02T00:03:13.686Z,0
2017-04-02T00:04:23.976Z,0
2017-04-02T00:05:34.511Z,0
2017-04-02T00:06:44.786Z,0
2017-04-02T00:07:55.069Z,0
2017-04-02T00:09:05.346Z,0
2017-04-02T00:10:15.002Z,0
2017-04-02T00:11:25.539Z,0
2017-04-02T00:12:35.811Z,0
2017-04-02T00:13:45.769Z,0
2017-04-02T00:14:55.732Z,0
2017-04-02T00:16:06.010Z,0
2017-04-02T00:17:16.536Z,0
2017-04-02T00:18:26.181Z,0
2017-04-02T00:19:36.462Z,0
2017-04-02T00:20:46.745Z,0
2017-04-02T00:21:57.017Z,0
2017-04-02T00:23:07.545Z,0
2017-04-02T00:24:17.815Z,0
2017-04-02T00:25:28.104Z,0
2017-04-02T00:26:38.639Z,0
2017-04-02T00:27:48.926Z,0
2017-04-02T00:28:59.185Z,0
2017-04-02T00:30:09.465Z,0
2017-04-02T00:31:19.779Z,0
2017-04-02T00:32:30.104Z,0
2017-04-02T00:33:40.373Z,0
2017-04-02T00:34:50.906Z,0
2017-04-02T00:36:01.182Z,0
2017-04-02T00:37:11.460Z,0
2017-04-02T00:38:21.421Z,0
2017-04-02T00:39:31.690Z,0
2017-04-02T00:40:42.219Z,0
2017-04-02T00:41:52.182Z,0
2017-04-02T00:43:01.858Z,0
2017-04-02T00:44:12.134Z,0
2017-04-02T00:45:22.089Z,0
2017-04-02T00:46:32.621Z,0
2017-04-02T00:47:42.903Z,0
2017-04-02T00:48:53.176Z,0
2017-04-02T00:50:02.821Z,0
2017-04-02T00:51:13.100Z,0
2017-04-02T00:52:23.620Z,0
2017-04-02T00:53:33.899Z,0
2017-04-02T00:54:43.866Z,0
2017-04-02T00:55:54.143Z,0
2017-04-02T00:57:04.416Z,0
2017-04-02T00:58:14.942Z,0
2017-04-02T00:59:25.211Z,0
2017-04-02T01:00:35.175Z,0
2017-04-02T01:01:44.838Z,0
2017-04-02T01:02:55.112Z,0
2017-04-02T01:04:05.641Z,0
2017-04-02T01:05:15.292Z,0
2017-04-02T01:06:25.563Z,0
2017-04-02T01:07:35.840Z,0
2017-04-02T01:08:46.112Z,0
2017-04-02T01:09:56.633Z,0
2017-04-02T01:11:06.596Z,0
2017-04-02T01:12:16.888Z,0
2017-04-02T01:13:27.157Z,0
2017-04-02T01:14:37.443Z,0
2017-04-02T01:15:47.967Z,0
2017-04-02T01:16:58.239Z,0
2017-04-02T01:18:08.521Z,0
2017-04-02T01:19:18.831Z,0
2017-04-02T01:20:29.098Z,0
2017-04-02T01:21:39.059Z,0
2017-04-02T01:22:49.330Z,0
2017-04-02T01:23:59.601Z,0
2017-04-02T01:25:10.089Z,0
2017-04-02T01:26:20.396Z,0
2017-04-02T01:27:30.918Z,0
2017-04-02T01:28:41.190Z,0
2017-04-02T01:29:51.468Z,0
2017-04-02T01:31:01.740Z,0
2017-04-02T01:32:12.010Z,0
2017-04-02T01:33:22.530Z,0
2017-04-02T01:34:32.499Z,0
2017-04-02T01:35:42.562Z,0
2017-04-02T01:36:52.835Z,0
2017-04-02T01:38:02.486Z,0
2017-04-02T01:39:12.372Z,0
2017-04-02T01:40:22.331Z,0
2017-04-02T01:41:32.612Z,0
2017-04-02T01:42:42.575Z,0
2017-04-02T01:43:52.840Z,0
2017-04-02T01:45:03.383Z,0
2017-04-02T01:46:13.349Z,0
2017-04-02T01:47:23.618Z,0
2017-04-02T01:48:33.275Z,0
2017-04-02T01:49:43.262Z,0
2017-04-02T01:50:53.529Z,0
2017-04-02T01:52:03.509Z,0
2017-04-02T01:53:13.780Z,0
2017-04-02T01:54:24.053Z,0
2017-04-02T01:55:34.015Z,0
2017-04-02T01:56:44.540Z,0
2017-04-02T01:57:54.817Z,0
2017-04-02T01:59:05.093Z,0
2017-04-02T02:00:15.370Z,0
2017-04-02T02:01:25.638Z,0
2017-04-02T02:02:36.165Z,0
2017-04-02T02:03:46.437Z,0
2017-04-02T02:04:56.424Z,0
2017-04-02T02:06:06.699Z,0
2017-04-02T02:07:16.972Z,0
2017-04-02T02:08:27.182Z,0
2017-04-02T02:09:37.140Z,0
2017-04-02T02:10:47.351Z,0
2017-04-02T02:11:57.627Z,0
2017-04-02T02:13:07.912Z,0
2017-04-02T02:14:18.432Z,0
2017-04-02T02:15:28.712Z,0
2017-04-02T02:16:38.669Z,0
2017-04-02T02:17:48.641Z,0
2017-04-02T02:18:58.908Z,0
2017-04-02T02:20:09.479Z,0
2017-04-02T02:21:19.746Z,0
2017-04-02T02:22:29.702Z,0
2017-04-02T02:23:39.976Z,0
2017-04-02T02:24:50.246Z,0
2017-04-02T02:26:00.819Z,0
2017-04-02T02:27:10.163Z,0
2017-04-02T02:28:20.132Z,0
2017-04-02T02:29:30.406Z,0
2017-04-02T02:30:40.680Z,0
2017-04-02T02:31:50.324Z,0
2017-04-02T02:33:00.296Z,0
2017-04-02T02:34:10.563Z,0
2017-04-02T02:35:20.536Z,0
2017-04-02T02:36:30.807Z,0
2017-04-02T02:37:41.515Z,0
2017-04-02T02:38:51.793Z,0
2017-04-02T02:40:01.754Z,0
2017-04-02T02:41:11.736Z,0
2017-04-02T02:42:22.007Z,0
2017-04-02T02:43:32.529Z,0
2017-04-02T02:44:42.486Z,0
2017-04-02T02:45:52.765Z,0
2017-04-02T02:47:03.044Z,0
2017-04-02T02:48:13.327Z,0
2017-04-02T02:49:23.846Z,0
2017-04-02T02:50:33.803Z,0
2017-04-02T02:51:44.121Z,0
2017-04-02T02:52:54.406Z,0
2017-04-02T02:54:04.678Z,0
2017-04-02T02:55:14.892Z,0
2017-04-02T02:56:25.171Z,0
2017-04-02T02:57:35.124Z,0
2017-04-02T02:58:45.393Z,0
2017-04-02T02:59:55.354Z,0
2017-04-02T03:01:05.874Z,0
2017-04-02T03:02:16.142Z,0
2017-04-02T03:03:26.417Z,0
2017-04-02T03:04:36.377Z,0
2017-04-02T03:05:46.333Z,0
2017-04-02T03:06:56.236Z,0
2017-04-02T03:08:06.550Z,0
2017-04-02T03:09:16.822Z,0
2017-04-02T03:10:26.480Z,0
2017-04-02T03:11:36.457Z,0
2017-04-02T03:12:47.025Z,0
2017-04-02T03:13:56.983Z,0
2017-04-02T03:15:07.265Z,0
2017-04-02T03:16:17.233Z,0
2017-04-02T03:17:27.551Z,0
2017-04-02T03:18:38.085Z,0
2017-04-02T03:19:48.398Z,0
2017-04-02T03:20:58.677Z,0
2017-04-02T03:22:08.652Z,0
2017-04-02T03:23:18.933Z,0
2017-04-02T03:24:29.513Z,0
2017-04-02T03:25:39.493Z,0
2017-04-02T03:26:49.762Z,0
2017-04-02T03:28:00.033Z,0
2017-04-02T03:29:09.988Z,0
2017-04-02T03:30:20.574Z,0
2017-04-02T03:31:30.843Z,0
2017-04-02T03:32:40.807Z,0
2017-04-02T03:33:51.082Z,0
2017-04-02T03:35:01.361Z,0
2017-04-02T03:36:11.884Z,0
2017-04-02T03:37:22.156Z,0
2017-04-02T03:38:32.426Z,0
2017-04-02T03:39:42.696Z,0
2017-04-02T03:40:52.673Z,0
2017-04-02T03:42:03.245Z,0
2017-04-02T03:43:12.901Z,0
2017-04-02T03:44:22.857Z,0
2017-04-02T03:45:32.819Z,0
2017-04-02T03:46:43.086Z,0
2017-04-02T03:47:53.620Z,0
2017-04-02T03:49:03.895Z,0
2017-04-02T03:50:14.170Z,0
2017-04-02T03:51:24.437Z,0
2017-04-02T03:52:34.399Z,0
2017-04-02T03:53:44.930Z,0
2017-04-02T03:54:55.238Z,0
2017-04-02T03:56:05.522Z,0
2017-04-02T03:57:15.786Z,0
2017-04-02T03:58:26.066Z,0
2017-04-02T03:59:36.290Z,0
2017-04-02T04:00:46.261Z,0
2017-04-02T04:01:56.533Z,0
2017-04-02T04:03:06.811Z,0
2017-04-02T04:04:17.085Z,0
2017-04-02T04:05:27.649Z,0
2017-04-02T04:06:37.306Z,0
2017-04-02T04:07:47.577Z,0
2017-04-02T04:08:57.850Z,0
2017-04-02T04:10:08.116Z,0
2017-04-02T04:11:18.347Z,0
2017-04-02T04:12:28.615Z,0
2017-04-02T04:13:38.883Z,0
2017-04-02T04:14:49.160Z,0
2017-04-02T04:15:59.122Z,0
2017-04-02T04:17:09.657Z,0
2017-04-02T04:18:19.923Z,0
2017-04-02T04:19:29.891Z,0
2017-04-02T04:20:40.154Z,0
2017-04-02T04:21:50.426Z,0
2017-04-02T04:23:00.963Z,0
2017-04-02T04:24:11.248Z,0
2017-04-02T04:25:21.520Z,0
2017-04-02T04:26:31.797Z,0
2017-04-02T04:27:41.771Z,0
2017-04-02T04:28:52.286Z,0
2017-04-02T04:30:02.577Z,0
2017-04-02T04:31:12.848Z,0
2017-04-02T04:32:22.514Z,0
2017-04-02T04:33:32.781Z,0
2017-04-02T04:34:43.309Z,0
2017-04-02T04:35:53.284Z,4
2017-04-02T04:37:03.567Z,4
2017-04-02T04:38:13.835Z,0
2017-04-02T04:39:24.120Z,0
2017-04-02T04:40:34.012Z,0
2017-04-02T04:41:44.285Z,0
2017-04-02T04:42:54.560Z,4
2017-04-02T04:44:04.514Z,4
2017-04-02T04:45:14.789Z,0
2017-04-02T04:46:25.002Z,4
2017-04-02T04:47:35.278Z,4
2017-04-02T04:48:45.543Z,0
2017-04-02T04:49:55.502Z,4
2017-04-02T04:51:05.480Z,4
2017-04-02T04:52:16.010Z,4
2017-04-02T04:53:26.280Z,8
2017-04-02T04:54:36.555Z,4
2017-04-02T04:55:46.822Z,8
2017-04-02T04:56:57.100Z,4
2017-04-02T04:58:07.677Z,4
2017-04-02T04:59:18.180Z,8
2017-04-02T05:00:28.146Z,4
2017-04-02T05:01:38.416Z,8
2017-04-02T05:02:48.688Z,8
2017-04-02T05:03:58.947Z,12
2017-04-02T05:05:09.217Z,8
2017-04-02T05:06:19.185Z,12
2017-04-02T05:07:29.155Z,12
2017-04-02T05:08:39.430Z,12
2017-04-02T05:09:49.954Z,12
2017-04-02T05:11:00.235Z,12
2017-04-02T05:12:10.499Z,12
2017-04-02T05:13:20.776Z,16
2017-04-02T05:14:30.732Z,16
2017-04-02T05:15:41.253Z,20
2017-04-02T05:16:51.530Z,20
2017-04-02T05:18:01.815Z,24
2017-04-02T05:19:12.080Z,24
2017-04-02T05:20:22.360Z,28
2017-04-02T05:21:32.623Z,32
2017-04-02T05:22:42.906Z,32
2017-04-02T05:23:53.182Z,32
2017-04-02T05:25:03.475Z,32
2017-04-02T05:26:13.747Z,32
2017-04-02T05:27:24.295Z,40
2017-04-02T05:28:34.305Z,40
2017-04-02T05:29:44.573Z,40
2017-04-02T05:30:54.561Z,40
2017-04-02T05:32:04.837Z,44
2017-04-02T05:33:15.071Z,44
2017-04-02T05:34:24.720Z,48
2017-04-02T05:35:34.684Z,52
2017-04-02T05:36:44.952Z,52
2017-04-02T05:37:54.908Z,52
2017-04-02T05:39:05.184Z,52
2017-04-02T05:40:15.464Z,56
2017-04-02T05:41:25.451Z,56
2017-04-02T05:42:35.730Z,56
2017-04-02T05:43:45.077Z,56
2017-04-02T05:44:54.974Z,60
2017-04-02T05:46:05.251Z,60
2017-04-02T05:47:15.521Z,64
2017-04-02T05:48:25.791Z,64
2017-04-02T05:49:36.058Z,64
2017-04-02T05:50:46.287Z,68
2017-04-02T05:51:56.568Z,72
2017-04-02T05:53:06.527Z,72
2017-04-02T05:54:16.809Z,76
2017-04-02T05:55:26.771Z,76
2017-04-02T05:56:36.993Z,76
2017-04-02T05:57:47.256Z,76
2017-04-02T05:58:57.222Z,72
2017-04-02T06:00:07.212Z,68
2017-04-02T06:01:16.859Z,68
2017-04-02T06:02:27.389Z,76
2017-04-02T06:03:37.708Z,76
2017-04-02T06:04:47.392Z,76
2017-04-02T06:05:57.678Z,76
2017-04-02T06:07:07.974Z,80
2017-04-02T06:08:18.505Z,80
2017-04-02T06:09:28.780Z,84
2017-04-02T06:10:39.083Z,80
2017-04-02T06:11:49.045Z,76
2017-04-02T06:12:59.318Z,84
2017-04-02T06:14:09.838Z,88
2017-04-02T06:15:19.808Z,92
2017-04-02T06:16:30.081Z,92
2017-04-02T06:17:40.041Z,88
2017-04-02T06:18:50.321Z,92
2017-04-02T06:20:00.947Z,92
2017-04-02T06:21:11.221Z,96
2017-04-02T06:22:21.497Z,92
2017-04-02T06:23:31.776Z,92
2017-04-02T06:24:42.063Z,96
2017-04-02T06:25:52.674Z,96
2017-04-02T06:27:02.956Z,92
2017-04-02T06:28:13.243Z,88
2017-04-02T06:29:23.530Z,88
2017-04-02T06:30:33.819Z,80
2017-04-02T06:31:44.072Z,56
2017-04-02T06:32:54.036Z,64
2017-04-02T06:34:03.999Z,52
2017-04-02T06:35:14.279Z,64
2017-04-02T06:36:24.555Z,60
2017-04-02T06:37:35.084Z,56
2017-04-02T06:38:45.356Z,80
2017-04-02T06:39:55.639Z,72
2017-04-02T06:41:05.920Z,92
2017-04-02T06:42:15.572Z,92
2017-04-02T06:43:25.782Z,92
2017-04-02T06:44:36.073Z,92
2017-04-02T06:45:46.048Z,96
2017-04-02T06:46:56.366Z,96
2017-04-02T06:48:06.344Z,96
2017-04-02T06:49:16.239Z,100
2017-04-02T06:50:26.516Z,104
2017-04-02T06:51:36.791Z,100
2017-04-02T06:52:47.071Z,100
2017-04-02T06:53:57.333Z,96
2017-04-02T06:55:07.862Z,80
2017-04-02T06:56:17.844Z,92
2017-04-02T06:57:27.820Z,88
2017-04-02T06:58:38.106Z,76
2017-04-02T06:59:48.389Z,72
2017-04-02T07:00:58.601Z,68
2017-04-02T07:02:07.628Z,88
2017-04-02T07:03:17.905Z,72
2017-04-02T07:04:28.178Z,88
2017-04-02T07:05:38.457Z,72
2017-04-02T07:06:48.980Z,72
2017-04-02T07:07:59.293Z,64
2017-04-02T07:09:09.566Z,92
2017-04-02T07:10:19.860Z,84
2017-04-02T07:11:29.511Z,84
2017-04-02T07:12:39.419Z,88
2017-04-02T07:13:49.692Z,88
2017-04-02T07:14:59.976Z,92
2017-04-02T07:16:09.958Z,96
2017-04-02T07:17:20.248Z,92
2017-04-02T07:18:30.466Z,92
2017-04-02T07:19:40.740Z,96
2017-04-02T07:20:51.030Z,96
2017-04-02T07:22:01.319Z,92
2017-04-02T07:23:11.296Z,88
2017-04-02T07:24:21.559Z,68
2017-04-02T07:25:31.536Z,68
2017-04-02T07:26:41.813Z,80
2017-04-02T07:27:51.793Z,92
2017-04-02T07:29:01.750Z,92
2017-04-02T07:30:11.986Z,96
2017-04-02T07:31:22.276Z,92
2017-04-02T07:32:32.251Z,72
2017-04-02T07:33:42.220Z,76
2017-04-02T07:34:52.492Z,72
2017-04-02T07:36:03.021Z,72
2017-04-02T07:37:13.041Z,72
2017-04-02T07:38:23.311Z,72
2017-04-02T07:39:33.281Z,76
2017-04-02T07:40:43.269Z,68
2017-04-02T07:41:53.479Z,64
2017-04-02T07:43:03.759Z,56
2017-04-02T07:44:14.045Z,52
2017-04-02T07:45:24.008Z,48
2017-04-02T07:46:33.979Z,44
2017-04-02T07:47:44.497Z,44
2017-04-02T07:48:54.467Z,44
2017-04-02T07:50:04.745Z,40
2017-04-02T07:51:15.026Z,40
2017-04-02T07:52:25.002Z,40
2017-04-02T07:53:35.563Z,36
2017-04-02T07:54:45.536Z,36
2017-04-02T07:55:55.518Z,36
2017-04-02T07:57:05.178Z,36
2017-04-02T07:58:15.145Z,40
2017-04-02T07:59:25.410Z,44
2017-04-02T08:00:35.368Z,44
2017-04-02T08:01:45.649Z,48
2017-04-02T08:02:55.921Z,48
2017-04-02T08:04:06.191Z,56
2017-04-02T08:05:16.720Z,60
2017-04-02T08:06:26.999Z,64
2017-04-02T08:07:37.283Z,84
2017-04-02T08:08:46.954Z,80
2017-04-02T08:09:56.605Z,92
2017-04-02T08:11:06.818Z,88
2017-04-02T08:12:16.781Z,88
2017-04-02T08:13:27.064Z,92
2017-04-02T08:14:37.343Z,100
2017-04-02T08:15:47.312Z,84
2017-04-02T08:16:57.535Z,88
2017-04-02T08:18:07.825Z,76
2017-04-02T08:19:18.104Z,72
2017-04-02T08:20:28.376Z,68
2017-04-02T08:21:39.305Z,64
2017-04-02T08:22:49.834Z,72
2017-04-02T08:24:00.114Z,88
2017-04-02T08:25:10.084Z,84
2017-04-02T08:26:20.367Z,84
2017-04-02T08:27:30.659Z,92
2017-04-02T08:28:41.181Z,76
2017-04-02T08:29:51.460Z,80
2017-04-02T08:31:01.744Z,88
2017-04-02T08:32:11.711Z,92
2017-04-02T08:33:21.683Z,92
2017-04-02T08:34:32.270Z,92
2017-04-02T08:35:42.560Z,92
2017-04-02T08:36:52.842Z,92
2017-04-02T08:38:02.854Z,92
2017-04-02T08:39:13.138Z,92
2017-04-02T08:40:23.409Z,92
2017-04-02T08:41:33.723Z,88
2017-04-02T08:42:44.008Z,88
2017-04-02T08:43:53.966Z,84
2017-04-02T08:45:04.256Z,92
2017-04-02T08:46:14.474Z,92
2017-04-02T08:47:24.823Z,88
2017-04-02T08:48:35.117Z,88
2017-04-02T08:49:45.394Z,88
2017-04-02T08:50:55.672Z,92
2017-04-02T08:52:06.223Z,92
2017-04-02T08:53:16.185Z,96
2017-04-02T08:54:25.531Z,92
2017-04-02T08:55:35.864Z,92
2017-04-02T08:56:45.555Z,92
2017-04-02T08:57:56.111Z,88
2017-04-02T08:59:06.095Z,96
2017-04-02T09:00:16.380Z,100
2017-04-02T09:01:26.346Z,96
2017-04-02T09:02:36.314Z,100
2017-04-02T09:03:46.238Z,100
2017-04-02T09:04:56.210Z,100
2017-04-02T09:06:06.501Z,80
2017-04-02T09:07:16.483Z,72
2017-04-02T09:08:26.472Z,64
2017-04-02T09:09:37.029Z,68
2017-04-02T09:10:46.997Z,72
2017-04-02T09:11:56.994Z,84
2017-04-02T09:13:07.289Z,72
2017-04-02T09:14:17.577Z,80
2017-04-02T09:15:28.136Z,88
2017-04-02T09:16:38.413Z,96
2017-04-02T09:17:48.721Z,92
2017-04-02T09:18:59.032Z,96
2017-04-02T09:20:09.320Z,96
2017-04-02T09:21:19.917Z,100
2017-04-02T09:22:29.594Z,96
2017-04-02T09:23:39.895Z,96
2017-04-02T09:24:50.194Z,84
2017-04-02T09:26:00.508Z,84
2017-04-02T09:27:11.108Z,76
2017-04-02T09:28:21.403Z,96
2017-04-02T09:29:31.698Z,72
2017-04-02T09:30:41.687Z,76
2017-04-02T09:31:51.674Z,76
2017-04-02T09:33:02.231Z,92
2017-04-02T09:34:12.519Z,88
2017-04-02T09:35:22.820Z,96
2017-04-02T09:36:33.114Z,104
2017-04-02T09:37:43.410Z,100
2017-04-02T09:38:53.950Z,108
2017-04-02T09:40:04.233Z,104
2017-04-02T09:41:14.229Z,108
2017-04-02T09:42:24.522Z,116
2017-04-02T09:43:34.809Z,80
2017-04-02T09:44:45.058Z,72
2017-04-02T09:45:55.035Z,72
2017-04-02T09:47:05.015Z,68
2017-04-02T09:48:15.316Z,72
2017-04-02T09:49:25.615Z,72
2017-04-02T09:50:36.172Z,76
2017-04-02T09:51:46.489Z,80
2017-04-02T09:52:56.778Z,88
2017-04-02T09:54:07.084Z,84
2017-04-02T09:55:17.386Z,76
2017-04-02T09:56:27.937Z,76
2017-04-02T09:57:38.240Z,76
2017-04-02T09:58:48.203Z,88
2017-04-02T09:59:58.177Z,80
2017-04-02T10:01:08.477Z,72
2017-04-02T10:02:18.421Z,72
2017-04-02T10:03:28.718Z,68
2017-04-02T10:04:39.026Z,80
2017-04-02T10:05:49.334Z,64
2017-04-02T10:06:59.302Z,64
2017-04-02T10:08:09.545Z,60
2017-04-02T10:09:19.843Z,60
2017-04-02T10:10:30.148Z,64
2017-04-02T10:11:40.436Z,64
2017-04-02T10:12:50.447Z,68
2017-04-02T10:14:00.688Z,68
2017-04-02T10:15:10.985Z,64
2017-04-02T10:16:21.287Z,68
2017-04-02T10:17:31.619Z,64
2017-04-02T10:18:41.934Z,68
2017-04-02T10:19:52.176Z,72
2017-04-02T10:21:02.187Z,72
2017-04-02T10:22:12.482Z,68
2017-04-02T10:23:22.808Z,64
2017-04-02T10:24:33.121Z,60
2017-04-02T10:25:43.691Z,60
2017-04-02T10:26:53.977Z,60
2017-04-02T10:28:03.979Z,60
2017-04-02T10:29:14.295Z,60
2017-04-02T10:30:24.597Z,56
2017-04-02T10:31:34.537Z,60
2017-04-02T10:32:44.855Z,80
2017-04-02T10:33:55.159Z,96
2017-04-02T10:35:05.135Z,100
2017-04-02T10:36:15.144Z,96
2017-04-02T10:37:25.696Z,96
2017-04-02T10:38:36.037Z,96
2017-04-02T10:39:46.362Z,100
2017-04-02T10:40:56.685Z,104
2017-04-02T10:42:06.720Z,104
2017-04-02T10:43:17.281Z,96
2017-04-02T10:44:27.282Z,96
2017-04-02T10:45:37.590Z,72
2017-04-02T10:46:47.890Z,68
2017-04-02T10:47:57.571Z,88
2017-04-02T10:49:07.808Z,68
2017-04-02T10:50:18.104Z,72
2017-04-02T10:51:28.393Z,84
2017-04-02T10:52:38.692Z,72
2017-04-02T10:53:48.990Z,68
2017-04-02T10:54:59.204Z,64
2017-04-02T10:56:09.212Z,68
2017-04-02T10:57:19.535Z,60
2017-04-02T10:58:29.842Z,64
2017-04-02T10:59:40.136Z,104
2017-04-02T11:00:50.722Z,100
2017-04-02T11:02:01.032Z,96
2017-04-02T11:03:11.325Z,72
2017-04-02T11:04:21.632Z,92
2017-04-02T11:05:31.648Z,104
2017-04-02T11:06:42.235Z,100
2017-04-02T11:07:52.228Z,96
2017-04-02T11:09:02.203Z,96
2017-04-02T11:10:12.490Z,104
2017-04-02T11:11:22.815Z,108
2017-04-02T11:12:33.364Z,112
2017-04-02T11:13:43.655Z,116
2017-04-02T11:14:53.942Z,116
2017-04-02T11:16:03.960Z,112
2017-04-02T11:17:14.288Z,108
2017-04-02T11:18:24.581Z,112
2017-04-02T11:19:34.883Z,116
2017-04-02T11:20:45.184Z,76
2017-04-02T11:21:55.470Z,68
2017-04-02T11:23:05.802Z,64
2017-04-02T11:24:16.355Z,60
2017-04-02T11:25:26.331Z,60
2017-04-02T11:26:36.616Z,60
2017-04-02T11:27:46.597Z,60
2017-04-02T11:28:56.593Z,56
2017-04-02T11:30:07.150Z,56
2017-04-02T11:31:17.445Z,52
2017-04-02T11:32:27.750Z,48
2017-04-02T11:33:38.051Z,44
2017-04-02T11:34:48.039Z,44
2017-04-02T11:35:58.322Z,44
2017-04-02T11:37:08.629Z,44
2017-04-02T11:38:18.949Z,44
2017-04-02T11:39:29.242Z,40
2017-04-02T11:40:39.526Z,44
2017-04-02T11:41:50.070Z,48
2017-04-02T11:43:00.390Z,44
2017-04-02T11:44:10.705Z,48
2017-04-02T11:45:20.912Z,48
2017-04-02T11:46:30.907Z,52
2017-04-02T11:47:41.138Z,88
2017-04-02T11:48:51.439Z,64
2017-04-02T11:50:01.417Z,84
2017-04-02T11:51:11.721Z,92
2017-04-02T11:52:22.022Z,88
2017-04-02T11:53:32.245Z,88
2017-04-02T11:54:42.550Z,92
2017-04-02T11:55:52.215Z,88
2017-04-02T11:57:01.885Z,92
2017-04-02T11:58:11.555Z,92
2017-04-02T11:59:21.767Z,56
2017-04-02T12:00:32.062Z,88
2017-04-02T12:01:42.365Z,76
2017-04-02T12:02:52.653Z,84
2017-04-02T12:04:02.931Z,88
2017-04-02T12:05:13.467Z,88
2017-04-02T12:06:23.748Z,56
2017-04-02T12:07:33.448Z,56
2017-04-02T12:08:43.747Z,56
2017-04-02T12:09:54.033Z,60
2017-04-02T12:11:04.580Z,80
2017-04-02T12:12:14.887Z,88
2017-04-02T12:13:25.184Z,88
2017-04-02T12:14:35.154Z,88
2017-04-02T12:15:45.473Z,88
2017-04-02T12:16:55.738Z,84
2017-04-02T12:18:06.037Z,84
2017-04-02T12:19:16.336Z,84
2017-04-02T12:20:26.327Z,88
2017-04-02T12:21:36.642Z,84
2017-04-02T12:22:46.924Z,88
2017-04-02T12:23:57.211Z,84
2017-04-02T12:25:06.884Z,84
2017-04-02T12:26:17.178Z,84
2017-04-02T12:27:27.461Z,76
2017-04-02T12:28:38.010Z,52
2017-04-02T12:29:48.317Z,56
2017-04-02T12:30:58.595Z,80
2017-04-02T12:32:08.885Z,84
2017-04-02T12:33:18.577Z,80
2017-04-02T12:34:29.118Z,80
2017-04-02T12:35:39.123Z,80
2017-04-02T12:36:49.411Z,84
2017-04-02T12:37:59.394Z,80
2017-04-02T12:39:09.372Z,80
2017-04-02T12:40:20.571Z,76
2017-04-02T12:41:30.870Z,80
2017-04-02T12:42:40.219Z,80
2017-04-02T12:43:50.196Z,80
2017-04-02T12:45:00.512Z,76
2017-04-02T12:46:11.064Z,64
2017-04-02T12:47:21.348Z,52
2017-04-02T12:48:31.636Z,72
2017-04-02T12:49:41.641Z,72
2017-04-02T12:50:51.928Z,76
2017-04-02T12:52:02.462Z,76
2017-04-02T12:53:12.763Z,80
2017-04-02T12:54:23.043Z,84
2017-04-02T12:55:33.326Z,80
2017-04-02T12:56:43.611Z,80
2017-04-02T12:57:54.149Z,80
2017-04-02T12:59:04.116Z,80
2017-04-02T13:00:14.401Z,60
2017-04-02T13:01:24.376Z,56
2017-04-02T13:02:34.671Z,48
2017-04-02T13:03:45.236Z,48
2017-04-02T13:04:55.308Z,44
2017-04-02T13:06:05.610Z,48
2017-04-02T13:07:15.586Z,52
2017-04-02T13:08:25.862Z,60
2017-04-02T13:09:36.078Z,76
2017-04-02T13:10:46.042Z,72
2017-04-02T13:11:56.359Z,72
2017-04-02T13:13:06.345Z,72
2017-04-02T13:14:16.655Z,72
2017-04-02T13:15:27.195Z,72
2017-04-02T13:16:37.494Z,72
2017-04-02T13:17:47.473Z,72
2017-04-02T13:18:57.439Z,72
2017-04-02T13:20:07.741Z,72
2017-04-02T13:21:18.275Z,72
2017-04-02T13:22:28.565Z,72
2017-04-02T13:23:38.556Z,72
2017-04-02T13:24:48.538Z,72
2017-04-02T13:25:58.822Z,72
2017-04-02T13:27:09.363Z,72
2017-04-02T13:28:19.644Z,72
2017-04-02T13:29:29.645Z,68
2017-04-02T13:30:39.627Z,68
2017-04-02T13:31:49.909Z,68
2017-04-02T13:33:00.448Z,68
2017-04-02T13:34:10.747Z,72
2017-04-02T13:35:21.027Z,68
2017-04-02T13:36:31.310Z,64
2017-04-02T13:37:41.637Z,68
2017-04-02T13:38:52.180Z,64
2017-04-02T13:40:02.150Z,64
2017-04-02T13:41:12.168Z,68
2017-04-02T13:42:22.466Z,64
2017-04-02T13:43:32.148Z,68
2017-04-02T13:44:42.767Z,64
2017-04-02T13:45:53.081Z,64
2017-04-02T13:47:03.087Z,64
2017-04-02T13:48:13.391Z,64
2017-04-02T13:49:23.675Z,64
2017-04-02T13:50:34.214Z,64
2017-04-02T13:51:44.556Z,68
2017-04-02T13:52:54.225Z,68
2017-04-02T13:54:04.515Z,64
2017-04-02T13:55:14.806Z,52
2017-04-02T13:56:25.061Z,48
2017-04-02T13:57:35.036Z,48
2017-04-02T13:58:45.330Z,52
2017-04-02T13:59:55.651Z,48
2017-04-02T14:01:05.652Z,56
2017-04-02T14:02:15.936Z,60
2017-04-02T14:03:26.231Z,48
2017-04-02T14:04:36.533Z,44
2017-04-02T14:05:46.840Z,48
2017-04-02T14:06:57.141Z,56
2017-04-02T14:08:07.678Z,52
2017-04-02T14:09:17.969Z,44
2017-04-02T14:10:28.267Z,44
2017-04-02T14:11:38.578Z,44
2017-04-02T14:12:48.888Z,44
2017-04-02T14:13:59.468Z,44
2017-04-02T14:15:09.757Z,48
2017-04-02T14:16:19.746Z,56
2017-04-02T14:17:29.733Z,56
2017-04-02T14:18:40.026Z,60
2017-04-02T14:19:50.580Z,56
2017-04-02T14:21:00.556Z,56
2017-04-02T14:22:10.851Z,56
2017-04-02T14:23:21.152Z,56
2017-04-02T14:24:31.466Z,56
2017-04-02T14:25:41.754Z,56
2017-04-02T14:26:52.057Z,56
2017-04-02T14:28:02.370Z,56
2017-04-02T14:29:12.709Z,60
2017-04-02T14:30:23.023Z,56
2017-04-02T14:31:33.581Z,52
2017-04-02T14:32:43.584Z,48
2017-04-02T14:33:53.881Z,48
2017-04-02T14:35:03.550Z,52
2017-04-02T14:36:13.555Z,56
2017-04-02T14:37:24.100Z,52
2017-04-02T14:38:34.458Z,52
2017-04-02T14:39:44.456Z,48
2017-04-02T14:40:54.756Z,48
2017-04-02T14:42:04.438Z,44
2017-04-02T14:43:14.774Z,44
2017-04-02T14:44:25.094Z,48
2017-04-02T14:45:35.401Z,48
2017-04-02T14:46:45.396Z,48
2017-04-02T14:47:55.713Z,48
2017-04-02T14:49:06.273Z,44
2017-04-02T14:50:16.281Z,40
2017-04-02T14:51:26.598Z,36
2017-04-02T14:52:36.908Z,36
2017-04-02T14:53:47.208Z,36
2017-04-02T14:54:57.817Z,36
2017-04-02T14:56:08.153Z,36
2017-04-02T14:57:18.146Z,40
2017-04-02T14:58:28.484Z,44
2017-04-02T14:59:38.782Z,44
2017-04-02T15:00:49.360Z,48
2017-04-02T15:01:59.659Z,44
2017-04-02T15:03:09.676Z,44
2017-04-02T15:04:20.013Z,44
2017-04-02T15:05:29.999Z,44
2017-04-02T15:06:40.579Z,44
2017-04-02T15:07:50.896Z,44
2017-04-02T15:09:01.227Z,44
2017-04-02T15:10:11.542Z,44
2017-04-02T15:11:21.881Z,44
2017-04-02T15:12:32.490Z,44
2017-04-02T15:13:42.811Z,40
2017-04-02T15:14:53.226Z,36
2017-04-02T15:16:03.553Z,40
2017-04-02T15:17:13.580Z,40
2017-04-02T15:18:24.196Z,40
2017-04-02T15:19:34.210Z,40
2017-04-02T15:20:43.607Z,40
2017-04-02T15:21:53.934Z,44
2017-04-02T15:23:03.946Z,44
2017-04-02T15:24:14.496Z,44
2017-04-02T15:25:24.191Z,44
2017-04-02T15:26:34.199Z,40
2017-04-02T15:27:44.509Z,40
2017-04-02T15:28:54.838Z,36
2017-04-02T15:30:05.390Z,36
2017-04-02T15:31:15.741Z,36
2017-04-02T15:32:25.732Z,36
2017-04-02T15:33:36.092Z,36
2017-04-02T15:34:46.412Z,36
2017-04-02T15:35:56.673Z,36
2017-04-02T15:37:07.014Z,36
2017-04-02T15:38:17.038Z,36
2017-04-02T15:39:27.364Z,32
2017-04-02T15:40:37.375Z,32
2017-04-02T15:41:47.991Z,32
2017-04-02T15:42:57.653Z,32
2017-04-02T15:44:07.994Z,32
2017-04-02T15:45:17.976Z,32
2017-04-02T15:46:28.310Z,28
2017-04-02T15:47:38.550Z,28
2017-04-02T15:48:48.560Z,28
2017-04-02T15:49:58.544Z,24
2017-04-02T15:51:08.861Z,24
2017-04-02T15:52:19.182Z,28
2017-04-02T15:53:29.756Z,24
2017-04-02T15:54:40.081Z,28
2017-04-02T15:55:50.421Z,24
2017-04-02T15:57:00.741Z,28
2017-04-02T15:58:10.725Z,24
2017-04-02T15:59:21.303Z,28
2017-04-02T16:00:31.626Z,28
2017-04-02T16:01:41.658Z,24
2017-04-02T16:02:51.644Z,24
2017-04-02T16:04:01.674Z,28
2017-04-02T16:05:11.995Z,28
2017-04-02T16:06:22.008Z,24
2017-04-02T16:07:32.363Z,24
2017-04-02T16:08:42.369Z,24
2017-04-02T16:09:52.701Z,24
2017-04-02T16:11:03.024Z,20
2017-04-02T16:12:13.046Z,24
2017-04-02T16:13:23.356Z,20
2017-04-02T16:14:33.682Z,20
2017-04-02T16:15:44.007Z,20
2017-04-02T16:16:54.632Z,20
2017-04-02T16:18:04.942Z,16
2017-04-02T16:19:14.948Z,20
2017-04-02T16:20:25.293Z,20
2017-04-02T16:21:35.607Z,20
2017-04-02T16:22:45.568Z,20
2017-04-02T16:23:55.889Z,20
2017-04-02T16:25:06.204Z,20
2017-04-02T16:26:16.530Z,20
2017-04-02T16:27:26.867Z,16
2017-04-02T16:28:37.513Z,20
2017-04-02T16:29:47.544Z,16
2017-04-02T16:30:57.547Z,20
2017-04-02T16:32:07.577Z,20
2017-04-02T16:33:17.886Z,20
2017-04-02T16:34:28.450Z,16
2017-04-02T16:35:38.796Z,20
2017-04-02T16:36:48.802Z,20
2017-04-02T16:37:59.146Z,20
2017-04-02T16:39:09.482Z,20
2017-04-02T16:40:19.774Z,20
2017-04-02T16:41:30.084Z,20
2017-04-02T16:42:40.408Z,20
2017-04-02T16:43:50.760Z,16
2017-04-02T16:45:00.762Z,20
2017-04-02T16:46:11.021Z,16
2017-04-02T16:47:21.049Z,20
2017-04-02T16:48:31.068Z,16
2017-04-02T16:49:41.365Z,16
2017-04-02T16:50:51.713Z,16